Terminal Aerodrome Forecast
Issued by NWS

Home | Current Version | Previous Version | Graphics & Text | Print | Product List | Glossary On
Versions: 1 2 3 4 5 6 7 8 9 10 11 12 13 14 15 16 17 18 19
000
FTUS43 KLSX 171957 AAA
TAFSUS
TAF AMD
KSUS 171957Z 1720/1818 15010G21KT P6SM OVC025
      TEMPO 1720/1723 SCT025
     FM172300 17011G18KT P6SM OVC015
     FM181100 21010G20KT 5SM -SHRA VCTS OVC025CB
     FM181400 26012G23KT 5SM -SHRA OVC020=

USA.gov is the U.S. government's official web portal to all federal, state and local government web resources and services.